createdAt,value
2023-04-01T00:02:15.446Z,10.20
2023-04-01T00:04:47.538Z,10.20
2023-04-01T00:07:17.424Z,10.30
2023-04-01T00:09:47.614Z,10.40
2023-04-01T00:12:17.638Z,10.30
2023-04-01T00:14:47.882Z,10.40
2023-04-01T00:17:18.169Z,10.30
2023-04-01T00:19:49.737Z,10.20
2023-04-01T00:22:22.405Z,10.10
2023-04-01T00:24:52.559Z,10.10
2023-04-01T00:27:22.562Z,10.00
2023-04-01T00:29:52.963Z,9.90
2023-04-01T00:32:23.213Z,9.80
2023-04-01T00:34:59.262Z,9.80
2023-04-01T00:37:29.878Z,9.70
2023-04-01T00:40:00.626Z,9.80
2023-04-01T00:42:30.832Z,9.50
2023-04-01T00:45:00.666Z,9.60
2023-04-01T00:47:31.298Z,9.60
2023-04-01T00:50:03.544Z,9.50
2023-04-01T00:52:33.465Z,9.50
2023-04-01T00:55:05.047Z,9.40
2023-04-01T00:57:38.114Z,9.40
2023-04-01T01:00:12.741Z,9.60
2023-04-01T01:02:46.017Z,9.60
2023-04-01T01:05:20.244Z,9.50
2023-04-01T01:07:59.672Z,9.40
2023-04-01T01:10:34.827Z,9.20
2023-04-01T01:13:13.440Z,9.00
2023-04-01T01:15:49.164Z,9.20
2023-04-01T01:18:27.745Z,9.20
2023-04-01T01:21:34.900Z,9.20
2023-04-01T01:24:30.333Z,9.30
2023-04-01T01:27:05.674Z,9.20
2023-04-01T01:30:16.923Z,9.40
2023-04-01T01:33:20.440Z,9.10
2023-04-01T01:35:55.619Z,9.00
2023-04-01T01:38:29.633Z,9.20
2023-04-01T01:41:07.250Z,9.10
2023-04-01T01:43:41.730Z,9.10
2023-04-01T01:46:16.628Z,9.10
2023-04-01T01:48:48.887Z,9.20
2023-04-01T01:51:21.982Z,9.00
2023-04-01T01:53:51.915Z,9.10
2023-04-01T01:56:29.490Z,9.20
2023-04-01T01:59:04.008Z,9.20
2023-04-01T02:01:37.527Z,9.30
2023-04-01T02:04:17.236Z,9.40
2023-04-01T02:06:56.492Z,9.30
2023-04-01T02:09:26.703Z,9.30
2023-04-01T02:12:00.721Z,9.30
2023-04-01T02:14:40.571Z,9.10
2023-04-01T02:17:14.363Z,9.20
2023-04-01T02:19:50.327Z,9.10
2023-04-01T02:22:27.909Z,9.10
2023-04-01T02:25:01.429Z,8.80
2023-04-01T02:27:33.281Z,8.90
2023-04-01T02:30:03.705Z,8.80
2023-04-01T02:32:36.514Z,8.90
2023-04-01T02:35:08.043Z,8.90
2023-04-01T02:37:43.587Z,8.90
2023-04-01T02:40:16.245Z,8.80
2023-04-01T02:42:45.961Z,8.70
2023-04-01T02:45:17.122Z,8.70
2023-04-01T02:47:47.080Z,8.60
2023-04-01T02:50:18.278Z,8.80
2023-04-01T02:52:49.664Z,8.80
2023-04-01T02:55:21.292Z,8.70
2023-04-01T02:57:51.600Z,8.70
2023-04-01T03:00:22.232Z,8.80
2023-04-01T03:02:52.370Z,8.60
2023-04-01T03:05:22.980Z,8.60
2023-04-01T03:07:54.783Z,8.60
2023-04-01T03:10:24.861Z,8.70
2023-04-01T03:12:54.744Z,8.80
2023-04-01T03:15:24.699Z,9.00
2023-04-01T03:17:54.773Z,9.20
2023-04-01T03:20:25.037Z,9.00
2023-04-01T03:22:56.883Z,9.00
2023-04-01T03:25:27.116Z,8.90
2023-04-01T03:27:57.324Z,9.00
2023-04-01T03:30:27.176Z,9.00
2023-04-01T03:32:57.265Z,8.90
2023-04-01T03:35:27.484Z,8.70
2023-04-01T03:37:59.127Z,8.70
2023-04-01T03:40:29.065Z,8.80
2023-04-01T03:42:59.015Z,8.60
2023-04-01T03:45:28.777Z,8.80
2023-04-01T03:47:58.756Z,8.80
2023-04-01T03:50:30.420Z,8.90
2023-04-01T03:53:02.816Z,9.00
2023-04-01T03:55:32.903Z,9.10
2023-04-01T03:58:04.071Z,9.10
2023-04-01T04:00:34.512Z,9.30
2023-04-01T04:03:05.399Z,9.10
2023-04-01T04:05:38.232Z,9.10
2023-04-01T04:08:10.499Z,9.30
2023-04-01T04:10:40.528Z,9.40
2023-04-01T04:13:10.564Z,9.30
2023-04-01T04:15:47.310Z,9.40
2023-04-01T04:18:17.941Z,9.30
2023-04-01T04:20:49.799Z,9.20
2023-04-01T04:23:21.765Z,9.40
2023-04-01T04:25:59.969Z,9.50
2023-04-01T04:28:32.475Z,9.40
2023-04-01T04:31:03.372Z,9.10
2023-04-01T04:33:33.505Z,9.40
2023-04-01T04:36:04.495Z,9.30
2023-04-01T04:38:35.989Z,9.10
2023-04-01T04:41:11.245Z,8.80
2023-04-01T04:43:44.737Z,8.90
2023-04-01T04:46:14.783Z,8.90
2023-04-01T04:48:45.368Z,9.10
2023-04-01T04:51:18.171Z,8.90
2023-04-01T04:53:51.502Z,9.00
2023-04-01T04:56:27.600Z,9.00
2023-04-01T04:59:06.015Z,9.00
2023-04-01T05:01:45.193Z,8.90
2023-04-01T05:04:17.537Z,9.10
2023-04-01T05:06:50.106Z,9.10
2023-04-01T05:09:23.186Z,9.40
2023-04-01T05:11:53.828Z,8.70
2023-04-01T05:14:25.058Z,8.70
2023-04-01T05:17:02.067Z,9.00
2023-04-01T05:19:32.476Z,9.30
2023-04-01T05:22:03.092Z,8.90
2023-04-01T05:24:35.989Z,9.30
2023-04-01T05:27:06.132Z,9.10
2023-04-01T05:29:39.396Z,9.00
2023-04-01T05:32:12.085Z,9.20
2023-04-01T05:34:41.991Z,9.40
2023-04-01T05:37:12.316Z,9.20
2023-04-01T05:39:44.980Z,9.20
2023-04-01T05:42:15.332Z,9.10
2023-04-01T05:44:45.644Z,9.20
2023-04-01T05:47:50.600Z,9.30
2023-04-01T05:50:22.041Z,8.90
2023-04-01T05:52:53.483Z,9.20
2023-04-01T05:55:27.083Z,9.40
2023-04-01T05:57:56.982Z,9.60
2023-04-01T06:00:27.141Z,9.60
2023-04-01T06:02:57.433Z,9.80
2023-04-01T06:05:30.627Z,9.80
2023-04-01T06:08:03.822Z,9.90
2023-04-01T06:10:46.214Z,9.90
2023-04-01T06:13:25.151Z,10.10
2023-04-01T06:16:02.460Z,10.30
2023-04-01T06:18:59.328Z,10.60
2023-04-01T06:21:54.491Z,10.40
2023-04-01T06:24:40.405Z,10.60
2023-04-01T06:27:26.069Z,10.30
2023-04-01T06:30:11.142Z,10.60
2023-04-01T06:33:03.435Z,10.50
2023-04-01T06:35:58.202Z,10.50
2023-04-01T06:38:50.614Z,10.60
2023-04-01T06:41:52.054Z,10.70
2023-04-01T06:44:33.945Z,10.90
2023-04-01T06:47:36.297Z,11.20
2023-04-01T06:50:31.752Z,11.50
2023-04-01T06:53:37.081Z,11.50
2023-04-01T06:56:31.889Z,11.70
2023-04-01T06:59:17.324Z,11.90
2023-04-01T07:01:53.009Z,11.80
2023-04-01T07:04:26.364Z,12.00
2023-04-01T07:06:59.507Z,11.90
2023-04-01T07:09:34.210Z,12.10
2023-04-01T07:12:42.740Z,11.60
2023-04-01T07:15:36.110Z,12.00
2023-04-01T07:18:19.124Z,11.90
2023-04-01T07:20:49.969Z,12.00
2023-04-01T07:23:25.823Z,12.00
2023-04-01T07:26:23.696Z,12.00
2023-04-01T07:29:23.311Z,12.10
2023-04-01T07:32:19.114Z,12.10
2023-04-01T07:35:05.200Z,12.20
2023-04-01T07:37:45.570Z,12.10
2023-04-01T07:40:24.918Z,12.10
2023-04-01T07:43:11.500Z,12.20
2023-04-01T07:45:56.206Z,12.10
2023-04-01T07:48:33.147Z,12.30
2023-04-01T07:51:14.022Z,12.30
2023-04-01T07:53:50.392Z,12.20
2023-04-01T07:56:28.091Z,12.20
2023-04-01T07:59:07.652Z,12.10
2023-04-01T08:02:04.885Z,12.20
2023-04-01T08:04:49.771Z,12.20
2023-04-01T08:07:26.724Z,12.20
2023-04-01T08:10:31.864Z,12.10
2023-04-01T08:13:42.632Z,12.10
2023-04-01T08:16:19.544Z,12.30
2023-04-01T08:19:04.672Z,12.30
2023-04-01T08:21:42.177Z,12.50
2023-04-01T08:24:23.804Z,12.70
2023-04-01T08:26:59.622Z,12.80
2023-04-01T08:29:40.429Z,12.90
2023-04-01T08:46:14.150Z,13.10
2023-04-01T08:49:09.005Z,13.90
2023-04-01T08:52:35.131Z,14.00
2023-04-01T08:55:39.805Z,14.20
2023-04-01T08:58:39.010Z,13.90
2023-04-01T09:02:08.810Z,14.20
2023-04-01T09:05:30.983Z,14.20
2023-04-01T09:08:10.368Z,14.60
2023-04-01T09:10:59.523Z,14.30
2023-04-01T09:14:29.070Z,14.30
2023-04-01T09:17:56.400Z,14.40
2023-04-01T09:20:44.053Z,14.30
2023-04-01T09:23:47.490Z,14.60
2023-04-01T09:26:30.247Z,14.90
2023-04-01T09:29:15.801Z,15.00
2023-04-01T09:32:04.674Z,15.30
2023-04-01T09:35:18.040Z,15.70
2023-04-01T09:38:01.612Z,15.60
2023-04-01T09:40:46.457Z,15.40
2023-04-01T09:43:30.558Z,15.30
2023-04-01T09:46:19.006Z,15.30
2023-04-01T09:49:35.733Z,15.50
2023-04-01T09:52:20.735Z,16.30
2023-04-01T09:55:05.313Z,16.50
2023-04-01T09:58:09.806Z,16.50
2023-04-01T10:01:26.179Z,16.30
2023-04-01T10:04:45.810Z,15.80
2023-04-01T10:07:53.660Z,16.20
2023-04-01T10:11:00.902Z,16.30
2023-04-01T10:14:04.221Z,15.90
2023-04-01T10:17:03.203Z,15.70
2023-04-01T10:20:09.750Z,15.60
2023-04-01T10:23:09.139Z,15.90
2023-04-01T10:26:13.167Z,16.30
2023-04-01T10:29:21.131Z,16.30
2023-04-01T10:32:25.720Z,16.40
2023-04-01T10:35:23.106Z,16.20
2023-04-01T10:38:21.416Z,16.20
2023-04-01T10:41:14.611Z,16.40
2023-04-01T10:44:37.177Z,16.60
2023-04-01T10:47:53.755Z,16.40
2023-04-01T10:50:41.595Z,16.40
2023-04-01T10:53:44.406Z,16.80
2023-04-01T10:56:42.881Z,17.50
2023-04-01T11:00:00.242Z,17.90
2023-04-01T11:03:48.938Z,17.30
2023-04-01T11:07:07.159Z,17.60
2023-04-01T11:10:13.265Z,18.30
2023-04-01T11:13:26.707Z,18.60
2023-04-01T11:16:39.802Z,19.00
2023-04-01T11:19:44.553Z,19.60
2023-04-01T11:22:38.176Z,19.90
2023-04-01T11:25:39.368Z,19.70
2023-04-01T11:29:20.866Z,19.80
2023-04-01T11:32:01.612Z,19.90
2023-04-01T11:34:45.185Z,20.40
2023-04-01T11:37:28.494Z,20.30
2023-04-01T11:40:30.396Z,20.10
2023-04-01T11:43:33.473Z,20.50
2023-04-01T11:46:28.408Z,20.60
2023-04-01T11:49:10.047Z,19.90
2023-04-01T11:52:03.912Z,19.80
2023-04-01T11:54:58.091Z,20.10
2023-04-01T11:57:46.410Z,19.30
2023-04-01T12:00:32.418Z,19.00
2023-04-01T12:03:36.834Z,19.70
2023-04-01T12:06:11.208Z,21.00
2023-04-01T12:08:49.311Z,23.20
2023-04-01T12:11:26.893Z,22.00
2023-04-01T12:14:05.814Z,21.30
2023-04-01T12:16:50.565Z,20.10
2023-04-01T12:19:29.169Z,21.20
2023-04-01T12:22:14.926Z,21.40
2023-04-01T12:24:50.168Z,21.10
2023-04-01T12:27:34.386Z,21.70
2023-04-01T12:30:32.727Z,22.00
2023-04-01T12:33:26.041Z,22.50
2023-04-01T12:36:04.417Z,22.90
2023-04-01T12:38:47.049Z,22.80
2023-04-01T12:41:26.897Z,23.50
2023-04-01T12:44:26.520Z,21.80
2023-04-01T12:47:14.231Z,22.10
2023-04-01T12:50:12.326Z,22.80
2023-04-01T12:52:52.347Z,23.40
2023-04-01T12:55:42.316Z,24.10
2023-04-01T12:58:55.826Z,23.90
2023-04-01T13:01:53.195Z,22.80
2023-04-01T13:05:04.859Z,21.50
2023-04-01T13:07:48.290Z,22.30
2023-04-01T13:10:30.951Z,21.70
2023-04-01T13:13:23.340Z,21.60
2023-04-01T13:15:57.464Z,23.20
2023-04-01T13:18:40.393Z,23.70
2023-04-01T13:21:18.213Z,23.00
2023-04-01T13:23:59.074Z,24.90
2023-04-01T13:26:34.274Z,23.90
2023-04-01T13:29:09.418Z,23.20
2023-04-01T13:32:05.405Z,23.80
2023-04-01T13:34:46.706Z,22.40
2023-04-01T13:37:27.681Z,22.30
2023-04-01T13:40:23.766Z,21.90
2023-04-01T13:42:59.867Z,23.00
2023-04-01T13:45:36.796Z,24.10
2023-04-01T13:48:30.099Z,24.30
2023-04-01T13:53:57.928Z,25.60
2023-04-01T13:56:36.335Z,23.50
2023-04-01T13:59:36.228Z,23.00
2023-04-01T14:02:27.669Z,23.60
2023-04-01T14:05:12.315Z,23.60
2023-04-01T14:07:59.368Z,23.30
2023-04-01T14:10:36.365Z,24.10
2023-04-01T14:13:14.445Z,24.50
2023-04-01T14:18:55.932Z,24.80
2023-04-01T14:21:36.203Z,25.50
2023-04-01T14:24:40.972Z,25.40
2023-04-01T14:27:34.627Z,23.40
2023-04-01T14:30:27.084Z,24.00
2023-04-01T14:33:04.105Z,24.80
2023-04-01T14:35:41.233Z,24.20
2023-04-01T14:38:50.485Z,23.70
2023-04-01T14:41:27.596Z,23.10
2023-04-01T14:44:27.288Z,22.50
2023-04-01T14:47:23.004Z,22.60
2023-04-01T14:49:56.215Z,23.10
2023-04-01T14:52:30.589Z,23.90
2023-04-01T14:55:01.252Z,23.70
2023-04-01T14:57:32.173Z,23.70
2023-04-01T15:00:16.348Z,22.90
2023-04-01T15:03:03.605Z,23.30
2023-04-01T15:05:45.144Z,22.70
2023-04-01T15:08:25.271Z,22.80
2023-04-01T15:11:13.506Z,22.40
2023-04-01T15:14:01.795Z,22.90
2023-04-01T15:16:39.126Z,23.60
2023-04-01T15:19:20.830Z,24.30
2023-04-01T15:22:13.007Z,23.80
2023-04-01T15:24:50.117Z,23.80
2023-04-01T15:27:26.677Z,23.00
2023-04-01T15:30:28.674Z,23.60
2023-04-01T15:33:20.835Z,24.60
2023-04-01T15:35:54.912Z,23.60
2023-04-01T15:38:35.842Z,23.00
2023-04-01T15:41:17.487Z,23.60
2023-04-01T15:43:50.539Z,24.70
2023-04-01T15:46:45.834Z,24.10
2023-04-01T15:52:20.272Z,24.30
2023-04-01T15:55:22.029Z,24.00
2023-04-01T15:58:08.535Z,24.60
2023-04-01T16:00:53.129Z,25.20
2023-04-01T16:03:35.962Z,24.00
2023-04-01T16:06:21.313Z,23.00
2023-04-01T16:09:04.281Z,23.70
2023-04-01T16:11:42.374Z,24.40
2023-04-01T16:14:24.730Z,23.90
2023-04-01T16:17:08.375Z,23.40
2023-04-01T16:19:52.226Z,22.90
2023-04-01T16:22:29.309Z,22.60
2023-04-01T16:25:22.713Z,22.20
2023-04-01T16:27:59.271Z,22.20
2023-04-01T16:30:40.060Z,22.00
2023-04-01T16:33:17.566Z,22.10
2023-04-01T16:35:55.781Z,22.10
2023-04-01T16:38:35.585Z,21.90
2023-04-01T16:41:14.973Z,21.50
2023-04-01T16:43:49.174Z,21.10
2023-04-01T16:46:38.002Z,21.00
2023-04-01T16:49:30.103Z,21.50
2023-04-01T16:52:16.341Z,21.40
2023-04-01T16:54:55.929Z,21.80
2023-04-01T16:57:30.952Z,21.00
2023-04-01T17:00:06.960Z,20.90
2023-04-01T17:02:41.011Z,20.70
2023-04-01T17:05:14.446Z,20.70
2023-04-01T17:07:51.075Z,20.20
2023-04-01T17:10:43.146Z,19.50
2023-04-01T17:13:34.824Z,19.00
2023-04-01T17:16:23.179Z,18.80
2023-04-01T17:19:02.446Z,18.60
2023-04-01T17:21:39.792Z,18.60
2023-04-01T17:24:23.773Z,18.60
2023-04-01T17:27:00.874Z,18.50
2023-04-01T17:29:37.339Z,18.60
2023-04-01T17:32:12.744Z,18.50
2023-04-01T17:34:57.531Z,18.50
2023-04-01T17:37:44.724Z,18.30
2023-04-01T17:40:44.266Z,18.10
2023-04-01T17:43:24.062Z,18.10
2023-04-01T17:45:57.732Z,17.90
2023-04-01T17:48:37.625Z,17.80
2023-04-01T17:51:25.042Z,17.80
2023-04-01T17:54:05.030Z,17.60
2023-04-01T17:56:48.188Z,17.60
2023-04-01T17:59:28.500Z,17.40
2023-04-01T18:02:06.178Z,17.30
2023-04-01T18:04:52.583Z,17.10
2023-04-01T18:07:39.852Z,17.10
2023-04-01T18:10:26.552Z,16.90
2023-04-01T18:13:24.818Z,16.90
2023-04-01T18:16:07.603Z,16.80
2023-04-01T18:18:50.902Z,16.50
2023-04-01T18:21:31.879Z,16.00
2023-04-01T18:24:05.532Z,16.20
2023-04-01T18:26:38.266Z,16.40
2023-04-01T18:29:20.611Z,16.30
2023-04-01T18:31:54.322Z,16.20
2023-04-01T18:34:44.930Z,16.40
2023-04-01T18:37:21.970Z,16.50
2023-04-01T18:42:34.556Z,16.10
2023-04-01T18:45:18.533Z,16.30
2023-04-01T18:47:58.454Z,16.10
2023-04-01T18:50:33.213Z,16.00
2023-04-01T18:53:16.848Z,15.70
2023-04-01T18:55:52.102Z,15.30
2023-04-01T18:58:28.899Z,15.30
2023-04-01T19:01:09.566Z,15.60
2023-04-01T19:06:23.018Z,15.70
2023-04-01T19:08:55.268Z,15.50
2023-04-01T19:11:35.965Z,15.50
2023-04-01T19:14:15.568Z,17.40
2023-04-01T19:16:53.995Z,15.50
2023-04-01T19:19:50.492Z,15.40
2023-04-01T19:22:38.283Z,15.40
2023-04-01T19:25:30.384Z,15.40
2023-04-01T19:28:08.974Z,15.40
2023-04-01T19:30:52.097Z,15.30
2023-04-01T19:33:31.713Z,14.90
2023-04-01T19:36:13.358Z,14.70
2023-04-01T19:38:45.686Z,15.00
2023-04-01T19:41:28.270Z,15.10
2023-04-01T19:44:06.009Z,15.00
2023-04-01T19:46:39.744Z,15.00
2023-04-01T19:49:25.137Z,14.90
2023-04-01T19:52:04.795Z,14.70
2023-04-01T19:54:47.315Z,14.60
2023-04-01T19:57:26.993Z,14.70
2023-04-01T20:00:04.090Z,14.70
2023-04-01T20:03:07.691Z,14.60
2023-04-01T20:05:51.788Z,14.60
2023-04-01T20:08:35.089Z,14.60
2023-04-01T20:11:14.746Z,14.70
2023-04-01T20:13:53.948Z,14.90
2023-04-01T20:16:24.481Z,14.70
2023-04-01T20:18:58.398Z,14.70
2023-04-01T20:21:37.756Z,14.80
2023-04-01T20:24:24.125Z,14.70
2023-04-01T20:27:02.017Z,14.80
2023-04-01T20:29:50.292Z,14.60
2023-04-01T20:32:34.800Z,14.50
2023-04-01T20:35:37.847Z,14.80
2023-04-01T20:38:35.648Z,14.90
2023-04-01T20:41:15.737Z,14.90
2023-04-01T20:44:05.072Z,14.70
2023-04-01T20:46:48.086Z,14.60
2023-04-01T20:49:40.967Z,14.70
2023-04-01T20:52:35.013Z,14.40
2023-04-01T20:55:25.026Z,14.70
2023-04-01T20:58:08.068Z,14.60
2023-04-01T21:00:44.849Z,14.60
2023-04-01T21:03:26.861Z,14.70
2023-04-01T21:06:21.140Z,14.70
2023-04-01T21:09:01.533Z,14.50
2023-04-01T21:11:38.491Z,14.80
2023-04-01T21:14:35.720Z,14.70
2023-04-01T21:17:15.466Z,15.00
2023-04-01T21:20:02.172Z,14.80
2023-04-01T21:22:56.831Z,14.70
2023-04-01T21:25:33.335Z,14.40
2023-04-01T21:28:28.539Z,14.60
2023-04-01T21:31:15.190Z,14.70
2023-04-01T21:34:02.562Z,14.70
2023-04-01T21:36:42.513Z,14.70
2023-04-01T21:39:29.777Z,14.60
2023-04-01T21:42:18.060Z,14.60
2023-04-01T21:45:12.144Z,14.50
2023-04-01T21:48:19.011Z,14.60
2023-04-01T21:51:12.481Z,14.60
2023-04-01T21:54:22.872Z,14.70
2023-04-01T21:57:23.265Z,14.80
2023-04-01T22:00:17.611Z,14.50
2023-04-01T22:03:27.931Z,14.70
2023-04-01T22:06:11.268Z,14.60
2023-04-01T22:09:01.177Z,14.40
2023-04-01T22:11:39.886Z,14.30
2023-04-01T22:14:15.157Z,14.30
2023-04-01T22:16:49.967Z,14.50
2023-04-01T22:19:27.717Z,14.30
2023-04-01T22:22:04.880Z,14.40
2023-04-01T22:24:44.758Z,14.60
2023-04-01T22:27:23.997Z,14.50
2023-04-01T22:30:04.149Z,14.50
2023-04-01T22:32:40.007Z,14.40
2023-04-01T22:35:20.417Z,14.50
2023-04-01T22:37:58.297Z,14.70
2023-04-01T22:40:33.357Z,14.90
2023-04-01T22:43:06.016Z,14.70
2023-04-01T22:46:10.573Z,14.60
2023-04-01T22:48:45.406Z,14.40
2023-04-01T22:51:21.075Z,14.40
2023-04-01T22:54:01.810Z,14.50
2023-04-01T22:56:36.676Z,14.40
2023-04-01T22:59:13.167Z,14.30
2023-04-01T23:01:47.799Z,14.50
2023-04-01T23:04:20.909Z,14.30
2023-04-01T23:06:56.832Z,14.30
2023-04-01T23:09:28.998Z,14.40
2023-04-01T23:12:04.243Z,14.30
2023-04-01T23:14:45.399Z,14.30
2023-04-01T23:17:44.634Z,14.20
2023-04-01T23:20:26.553Z,14.10
2023-04-01T23:23:09.113Z,14.00
2023-04-01T23:25:47.764Z,13.90
2023-04-01T23:28:42.779Z,13.80
2023-04-01T23:31:33.845Z,13.40
2023-04-01T23:34:05.353Z,13.30
2023-04-01T23:36:41.561Z,13.20
2023-04-01T23:39:23.867Z,13.40
2023-04-01T23:41:56.715Z,13.20
2023-04-01T23:44:28.349Z,13.30
2023-04-01T23:46:58.587Z,13.50
2023-04-01T23:49:31.986Z,13.30
2023-04-01T23:52:05.606Z,13.20
2023-04-01T23:54:41.766Z,13.30
2023-04-01T23:57:17.851Z,13.30
